Time;durP1;ratioP1;P1;durP2;ratioP2;P2;SDS_P1;SDS_P2;PMS_P1;PMS_P2;Temp;Humidity;BMP_temperature;BMP_pressure;BME280_temperature;BME280_humidity;BME280_pressure;Samples;Min_cycle;Max_cycle;Signal;HPM_P1;HPM_P2
2021/01/18 00:01:34;;;;;;;28.60;13.67;;;0.70;99.90;;;;;;5039182;28;20811;-66
2021/01/18 00:04:00;;;;;;;33.07;14.93;;;0.70;99.90;;;;;;5034544;28;20432;-66
2021/01/18 00:06:25;;;;;;;31.90;15.67;;;0.70;99.90;;;;;;5036886;28;20894;-66
2021/01/18 00:08:52;;;;;;;36.17;14.87;;;0.70;99.90;;;;;;5035212;28;20932;-65
2021/01/18 00:11:22;;;;;;;31.40;15.00;;;0.80;99.90;;;;;;5037897;28;20212;-66
2021/01/18 00:13:49;;;;;;;29.60;16.30;;;0.70;99.90;;;;;;5037002;28;20424;-66
2021/01/18 00:16:16;;;;;;;29.13;14.17;;;0.70;99.90;;;;;;5038774;28;20474;-66
2021/01/18 00:18:42;;;;;;;33.97;15.03;;;0.70;99.90;;;;;;5035652;28;20812;-66
2021/01/18 00:21:08;;;;;;;29.27;14.80;;;0.70;99.90;;;;;;5036626;28;20428;-66
2021/01/18 00:23:38;;;;;;;29.83;14.30;;;0.70;99.90;;;;;;5037775;28;20435;-66
2021/01/18 00:26:05;;;;;;;30.80;15.10;;;0.70;99.90;;;;;;5035714;28;20458;-66
2021/01/18 00:28:34;;;;;;;27.10;14.70;;;0.70;99.90;;;;;;5036232;28;20463;-66
2021/01/18 00:31:01;;;;;;;32.50;14.50;;;0.70;99.90;;;;;;5036602;28;20920;-66
2021/01/18 00:33:27;;;;;;;30.97;15.33;;;0.70;99.90;;;;;;5034758;28;20810;-65
2021/01/18 00:35:52;;;;;;;26.90;13.80;;;0.70;99.90;;;;;;5037836;28;20501;-65
2021/01/18 00:38:18;;;;;;;29.20;14.73;;;0.70;99.90;;;;;;5036497;28;20173;-65
2021/01/18 00:40:44;;;;;;;29.97;13.77;;;0.70;99.90;;;;;;5035857;28;20222;-65
2021/01/18 00:43:10;;;;;;;28.33;14.17;;;0.70;99.90;;;;;;5037900;28;20496;-65
2021/01/18 00:45:36;;;;;;;30.77;14.20;;;0.70;99.90;;;;;;5037397;28;20201;-65
2021/01/18 00:48:02;;;;;;;30.43;14.20;;;0.70;99.90;;;;;;5033653;28;21172;-65
2021/01/18 00:50:30;;;;;;;30.53;15.60;;;0.70;99.90;;;;;;5036394;28;20186;-65
2021/01/18 00:52:57;;;;;;;26.13;13.30;;;0.70;99.90;;;;;;5034542;28;20436;-65
2021/01/18 00:55:25;;;;;;;30.90;14.63;;;0.70;99.90;;;;;;5037190;28;20476;-65
2021/01/18 00:57:51;;;;;;;30.97;13.93;;;0.70;99.90;;;;;;5036138;28;20428;-65
2021/01/18 01:00:20;;;;;;;32.97;15.83;;;0.80;99.90;;;;;;5034305;28;21057;-65
2021/01/18 01:02:48;;;;;;;25.40;13.80;;;0.80;99.90;;;;;;5035432;28;20764;-65
2021/01/18 01:05:16;;;;;;;26.30;14.13;;;0.80;99.90;;;;;;5035074;28;20850;-65
2021/01/18 01:07:44;;;;;;;25.83;14.40;;;0.80;99.90;;;;;;5037518;28;20955;-65
2021/01/18 01:10:13;;;;;;;32.53;15.50;;;0.80;99.90;;;;;;5031756;28;20427;-65
2021/01/18 01:12:38;;;;;;;29.67;15.00;;;0.80;99.90;;;;;;5052146;22;20495;-74
2021/01/18 01:15:08;;;;;;;30.77;14.57;;;0.80;99.90;;;;;;5021767;28;20864;-74
2021/01/18 01:17:40;;;;;;;27.73;13.77;;;0.80;99.90;;;;;;5030788;28;20166;-74
2021/01/18 01:20:07;;;;;;;39.47;16.33;;;0.80;99.90;;;;;;5018224;28;20432;-74
2021/01/18 01:22:33;;;;;;;39.10;16.33;;;0.80;99.90;;;;;;5012893;28;20424;-74
2021/01/18 01:24:59;;;;;;;28.87;13.67;;;0.80;99.90;;;;;;5020399;28;20424;-74
2021/01/18 01:27:25;;;;;;;29.70;15.57;;;0.90;99.90;;;;;;5021664;28;20438;-74
2021/01/18 01:29:50;;;;;;;29.60;15.13;;;0.90;99.90;;;;;;5020626;28;20235;-74
2021/01/18 01:32:16;;;;;;;30.17;15.43;;;1.00;99.90;;;;;;5021949;28;20440;-74
2021/01/18 01:34:42;;;;;;;33.13;14.87;;;0.90;99.90;;;;;;5018229;28;20617;-74
2021/01/18 01:37:08;;;;;;;27.73;14.80;;;0.90;99.90;;;;;;5018635;28;20178;-74
2021/01/18 01:39:33;;;;;;;33.20;15.67;;;0.90;99.90;;;;;;5022589;28;20588;-74
2021/01/18 01:41:59;;;;;;;38.83;16.33;;;0.90;99.90;;;;;;5024334;28;20185;-74
2021/01/18 01:44:25;;;;;;;35.27;14.77;;;1.00;99.90;;;;;;5016890;28;20181;-74
2021/01/18 01:46:51;;;;;;;30.83;14.30;;;0.90;99.90;;;;;;5028285;28;20177;-75
2021/01/18 01:49:17;;;;;;;31.43;14.87;;;0.90;99.90;;;;;;5018059;28;20193;-75
2021/01/18 01:51:43;;;;;;;34.70;16.60;;;1.00;99.90;;;;;;5021443;28;20432;-76
2021/01/18 01:54:09;;;;;;;29.67;14.13;;;1.00;99.90;;;;;;5015847;28;20188;-75
2021/01/18 01:56:35;;;;;;;34.53;15.30;;;0.90;99.90;;;;;;5024561;28;20481;-76
2021/01/18 01:59:02;;;;;;;40.93;16.30;;;0.90;99.90;;;;;;5017838;28;20429;-76
2021/01/18 02:01:28;;;;;;;37.93;17.60;;;0.90;99.90;;;;;;5020680;28;20195;-76
2021/01/18 02:03:57;;;;;;;32.60;14.73;;;0.90;99.90;;;;;;5014296;28;20423;-76
2021/01/18 02:06:23;;;;;;;31.40;14.40;;;0.90;99.90;;;;;;5018223;28;20185;-76
2021/01/18 02:08:50;;;;;;;36.97;17.40;;;0.90;99.90;;;;;;5024593;28;20773;-76
2021/01/18 02:11:16;;;;;;;35.30;17.23;;;0.90;99.90;;;;;;5019652;28;20591;-76
2021/01/18 02:14:27;;;;;;;29.63;15.43;;;0.90;99.90;;;;;;5023713;28;20425;-76
2021/01/18 02:17:11;;;;;;;34.93;14.90;;;0.90;99.90;;;;;;5016973;28;20476;-75
2021/01/18 02:20:02;;;;;;;29.47;15.30;;;0.90;99.90;;;;;;5025821;28;20432;-76
2021/01/18 02:22:39;;;;;;;45.33;17.97;;;0.90;99.90;;;;;;5022245;28;20429;-76
2021/01/18 02:25:20;;;;;;;33.00;16.13;;;1.00;99.90;;;;;;5019807;28;20761;-77
2021/01/18 02:28:21;;;;;;;32.20;14.87;;;1.00;99.90;;;;;;5019626;28;20432;-76
2021/01/18 02:30:56;;;;;;;37.30;16.27;;;1.00;99.90;;;;;;5022587;28;20424;-76
2021/01/18 02:33:43;;;;;;;37.53;16.77;;;1.10;99.90;;;;;;5017127;28;20431;-76
2021/01/18 02:36:15;;;;;;;34.20;15.23;;;1.10;99.90;;;;;;5020055;28;21012;-76
2021/01/18 02:39:13;;;;;;;35.07;15.63;;;1.10;99.90;;;;;;5020033;28;20424;-76
2021/01/18 02:42:07;;;;;;;34.00;15.40;;;1.10;99.90;;;;;;5026583;28;20482;-76
2021/01/18 02:44:36;;;;;;;28.43;14.03;;;1.10;99.90;;;;;;5021475;28;20893;-76
2021/01/18 02:47:04;;;;;;;33.10;15.07;;;1.10;99.90;;;;;;5018994;28;20436;-76
2021/01/18 02:49:31;;;;;;;28.10;14.07;;;1.10;99.90;;;;;;5025528;28;20772;-76
2021/01/18 02:52:12;;;;;;;34.80;14.27;;;1.10;99.90;;;;;;5012790;28;20995;-76
2021/01/18 02:54:38;;;;;;;30.70;14.50;;;1.10;99.90;;;;;;5018335;28;20436;-76
2021/01/18 02:57:16;;;;;;;28.90;13.40;;;1.10;99.90;;;;;;5023444;28;20464;-76
2021/01/18 02:59:42;;;;;;;32.43;13.20;;;1.10;99.90;;;;;;5013526;28;20706;-76
2021/01/18 03:02:15;;;;;;;30.00;13.40;;;1.10;99.90;;;;;;5012294;28;20439;-76
2021/01/18 03:04:44;;;;;;;30.37;14.20;;;1.10;99.90;;;;;;5018903;28;20458;-77
2021/01/18 03:07:26;;;;;;;34.20;14.07;;;1.20;99.90;;;;;;5018926;28;20447;-76
2021/01/18 03:10:27;;;;;;;28.17;13.67;;;1.20;99.90;;;;;;5020156;28;20438;-77
2021/01/18 03:13:01;;;;;;;45.03;14.87;;;1.30;99.90;;;;;;4983124;28;20451;-76
2021/01/18 03:15:36;;;;;;;31.07;14.10;;;1.20;99.90;;;;;;5021679;28;20507;-76
2021/01/18 03:18:03;;;;;;;31.43;14.13;;;1.20;99.90;;;;;;5022512;28;20477;-76
2021/01/18 03:20:31;;;;;;;36.77;13.70;;;1.20;99.90;;;;;;5018245;28;20435;-77
2021/01/18 03:23:07;;;;;;;28.43;13.60;;;1.10;99.90;;;;;;5024328;28;20478;-76
2021/01/18 03:25:45;;;;;;;27.80;12.90;;;1.20;99.90;;;;;;5020831;28;20503;-76
2021/01/18 03:28:11;;;;;;;29.03;13.67;;;1.20;99.90;;;;;;5024652;28;20432;-76
2021/01/18 03:30:36;;;;;;;35.43;12.93;;;1.20;99.90;;;;;;5022752;28;20515;-76
2021/01/18 03:33:02;;;;;;;30.40;12.83;;;1.20;99.90;;;;;;5023319;28;20280;-76
2021/01/18 03:35:28;;;;;;;25.50;12.40;;;1.20;99.90;;;;;;5023637;28;20213;-76
2021/01/18 03:37:56;;;;;;;29.10;13.70;;;1.10;99.90;;;;;;5027237;28;20253;-76
2021/01/18 03:40:23;;;;;;;32.33;14.40;;;1.10;99.90;;;;;;5023301;28;20427;-77
2021/01/18 03:43:01;;;;;;;27.77;12.50;;;1.20;99.90;;;;;;5025121;28;20426;-76
2021/01/18 03:45:32;;;;;;;20.93;10.73;;;1.20;99.90;;;;;;5019517;28;20913;-76
2021/01/18 03:47:58;;;;;;;29.43;12.27;;;1.10;99.90;;;;;;5021483;28;20474;-76
2021/01/18 03:50:24;;;;;;;27.90;10.77;;;1.10;99.90;;;;;;5019441;28;20760;-76
2021/01/18 03:52:52;;;;;;;29.23;13.33;;;1.10;99.90;;;;;;5016316;28;20177;-76
2021/01/18 03:55:19;;;;;;;26.93;11.83;;;1.10;99.90;;;;;;5020991;28;20472;-76
2021/01/18 03:57:47;;;;;;;34.03;12.87;;;1.10;99.90;;;;;;5025327;28;20424;-76
2021/01/18 04:00:14;;;;;;;24.03;11.20;;;1.30;99.90;;;;;;5022965;28;20458;-77
2021/01/18 04:02:40;;;;;;;21.60;9.33;;;1.20;99.90;;;;;;5016417;28;20421;-76
2021/01/18 04:05:07;;;;;;;25.33;11.47;;;1.10;99.90;;;;;;5018142;28;20471;-77
2021/01/18 04:07:33;;;;;;;27.30;10.70;;;1.10;99.90;;;;;;5016736;28;20439;-77
2021/01/18 04:09:58;;;;;;;24.87;10.77;;;1.10;99.90;;;;;;5022968;28;20429;-77
2021/01/18 04:12:24;;;;;;;24.47;11.37;;;1.10;99.90;;;;;;5020702;28;20621;-76
2021/01/18 04:14:50;;;;;;;22.70;10.60;;;1.10;99.90;;;;;;5021072;28;20206;-77
2021/01/18 04:17:17;;;;;;;25.23;11.07;;;1.10;99.90;;;;;;5017176;28;20189;-77
2021/01/18 04:19:43;;;;;;;20.63;9.37;;;1.10;99.90;;;;;;5025396;28;20330;-77
2021/01/18 04:22:09;;;;;;;18.80;9.80;;;1.10;99.90;;;;;;5016636;28;20456;-76
2021/01/18 04:24:34;;;;;;;28.37;12.03;;;1.20;99.90;;;;;;5022319;28;20778;-77
2021/01/18 04:27:00;;;;;;;25.93;11.37;;;1.20;99.90;;;;;;5015734;28;20183;-76
2021/01/18 04:29:27;;;;;;;18.00;9.63;;;1.10;99.90;;;;;;5026944;28;20212;-77
2021/01/18 04:31:53;;;;;;;27.97;10.70;;;1.20;99.90;;;;;;5018110;28;20829;-77
2021/01/18 04:34:19;;;;;;;24.63;10.43;;;1.20;99.90;;;;;;5014786;28;20527;-76
2021/01/18 04:36:45;;;;;;;28.40;10.60;;;1.20;99.90;;;;;;5017265;28;20544;-76
2021/01/18 04:39:11;;;;;;;21.67;11.23;;;1.10;99.90;;;;;;5028180;28;20435;-77
2021/01/18 04:41:41;;;;;;;21.53;10.77;;;1.10;99.90;;;;;;5017682;28;20425;-77
2021/01/18 04:44:16;;;;;;;23.07;12.03;;;1.20;99.90;;;;;;5019911;28;20468;-77
2021/01/18 04:46:44;;;;;;;25.73;9.83;;;1.20;99.90;;;;;;5022669;28;20413;-76
2021/01/18 04:49:11;;;;;;;26.63;10.63;;;1.20;99.90;;;;;;5025231;28;20522;-76
2021/01/18 04:51:52;;;;;;;23.67;9.73;;;1.20;99.90;;;;;;5019416;28;20425;-76
2021/01/18 04:54:20;;;;;;;19.17;9.83;;;1.20;99.90;;;;;;5021044;28;20411;-77
2021/01/18 04:57:04;;;;;;;25.47;11.23;;;1.20;99.90;;;;;;5015776;28;20461;-77
2021/01/18 04:59:45;;;;;;;15.37;7.43;;;1.20;99.90;;;;;;5014440;28;20430;-76
2021/01/18 05:02:18;;;;;;;16.50;8.67;;;1.20;99.90;;;;;;5018787;28;20432;-76
2021/01/18 05:04:48;;;;;;;23.60;11.07;;;1.20;99.90;;;;;;5019882;28;20427;-77
2021/01/18 05:07:23;;;;;;;18.47;7.93;;;1.20;99.90;;;;;;5020637;28;20432;-77
2021/01/18 05:10:09;;;;;;;17.93;8.47;;;1.30;99.90;;;;;;5019314;28;20943;-77
2021/01/18 05:12:40;;;;;;;16.67;9.43;;;1.30;99.90;;;;;;5021783;28;20802;-77
2021/01/18 05:15:11;;;;;;;20.33;7.30;;;1.30;99.90;;;;;;5020448;28;20468;-77
2021/01/18 05:17:42;;;;;;;21.43;8.47;;;1.40;99.90;;;;;;5019008;28;20429;-77
2021/01/18 05:20:18;;;;;;;25.60;9.27;;;1.40;99.90;;;;;;5018865;28;20463;-77
2021/01/18 05:22:47;;;;;;;17.60;8.57;;;1.40;99.90;;;;;;5018344;28;20420;-76
2021/01/18 05:25:14;;;;;;;17.50;7.50;;;1.40;99.90;;;;;;5017843;28;20459;-76
2021/01/18 05:28:05;;;;;;;14.47;8.80;;;1.30;99.90;;;;;;5025957;28;20437;-77
2021/01/18 05:30:42;;;;;;;26.23;9.00;;;1.30;99.90;;;;;;5026042;28;20429;-76
2021/01/18 05:33:11;;;;;;;18.83;7.97;;;1.30;99.90;;;;;;5015697;28;20443;-76
2021/01/18 05:35:45;;;;;;;16.57;7.37;;;1.40;99.90;;;;;;5015997;28;20468;-76
2021/01/18 05:38:12;;;;;;;19.57;7.60;;;1.40;99.90;;;;;;5022788;28;20470;-76
2021/01/18 05:40:45;;;;;;;19.37;8.20;;;1.40;99.90;;;;;;5020304;28;20947;-76
2021/01/18 05:43:14;;;;;;;16.77;8.43;;;1.40;99.90;;;;;;5019461;28;20428;-77
2021/01/18 05:45:45;;;;;;;16.93;8.93;;;1.40;99.90;;;;;;5023897;28;20433;-77
2021/01/18 05:48:12;;;;;;;22.57;9.70;;;1.50;99.90;;;;;;5022444;28;20499;-77
2021/01/18 05:50:39;;;;;;;19.97;9.00;;;1.50;99.90;;;;;;5026097;28;20801;-77
2021/01/18 05:53:32;;;;;;;17.30;9.13;;;1.50;99.90;;;;;;5021047;28;20975;-77
2021/01/18 05:56:19;;;;;;;29.80;10.47;;;1.50;99.90;;;;;;5024109;28;20481;-76
2021/01/18 05:58:48;;;;;;;26.90;10.23;;;1.60;99.90;;;;;;5020677;28;20420;-76
2021/01/18 06:01:33;;;;;;;26.60;10.43;;;1.60;99.90;;;;;;5014953;28;20457;-76
2021/01/18 06:04:10;;;;;;;31.70;10.90;;;1.60;99.90;;;;;;5022987;28;20435;-76
2021/01/18 06:06:36;;;;;;;23.30;11.20;;;1.60;99.90;;;;;;5020364;28;20435;-76
2021/01/18 06:09:02;;;;;;;25.47;10.47;;;1.60;99.90;;;;;;5026416;28;20458;-76
2021/01/18 06:11:28;;;;;;;23.03;11.00;;;1.60;99.90;;;;;;5028463;28;20847;-76
2021/01/18 06:14:05;;;;;;;26.90;11.83;;;1.70;99.90;;;;;;5015754;28;20505;-76
2021/01/18 06:16:32;;;;;;;29.10;12.20;;;1.70;99.90;;;;;;5013093;28;20209;-76
2021/01/18 06:19:02;;;;;;;23.13;10.13;;;1.70;99.90;;;;;;5014954;28;20482;-76
2021/01/18 06:21:41;;;;;;;41.90;11.13;;;1.70;99.90;;;;;;5013989;28;20435;-76
2021/01/18 06:24:27;;;;;;;30.07;11.83;;;1.70;99.90;;;;;;5020581;28;20428;-76
2021/01/18 06:26:54;;;;;;;30.60;11.77;;;1.70;99.90;;;;;;5024823;28;20437;-76
2021/01/18 06:29:39;;;;;;;28.93;11.30;;;1.70;99.90;;;;;;5024796;28;20745;-76
2021/01/18 06:32:07;;;;;;;25.43;10.87;;;1.70;99.90;;;;;;5023130;28;20417;-75
2021/01/18 06:34:33;;;;;;;21.20;9.90;;;1.80;99.90;;;;;;5022978;28;20679;-76
2021/01/18 06:36:59;;;;;;;26.57;11.70;;;1.90;99.90;;;;;;5014994;28;20990;-76
2021/01/18 06:39:27;;;;;;;21.20;11.80;;;1.90;99.90;;;;;;5022310;28;20310;-77
2021/01/18 06:41:58;;;;;;;25.23;9.90;;;1.90;99.90;;;;;;5019813;28;20436;-76
2021/01/18 06:44:34;;;;;;;15.97;8.67;;;1.90;99.90;;;;;;5027708;28;20547;-77
2021/01/18 06:47:00;;;;;;;15.67;8.10;;;1.90;99.90;;;;;;5020271;28;20428;-77
2021/01/18 06:49:27;;;;;;;19.57;8.53;;;1.90;99.90;;;;;;5023496;28;20440;-76
2021/01/18 06:51:57;;;;;;;17.23;9.60;;;2.00;99.90;;;;;;5020354;28;20439;-77
2021/01/18 06:54:31;;;;;;;18.07;7.37;;;2.10;99.90;;;;;;5028076;28;20420;-75
2021/01/18 06:57:19;;;;;;;16.87;7.67;;;2.00;99.90;;;;;;5026532;28;20451;-74
2021/01/18 06:59:52;;;;;;;17.10;7.23;;;2.00;99.90;;;;;;5029307;28;20417;-74
2021/01/18 07:02:26;;;;;;;17.63;7.43;;;2.00;99.90;;;;;;5038111;28;20956;-74
2021/01/18 07:05:09;;;;;;;17.17;7.87;;;2.00;99.90;;;;;;5040931;28;20424;-73
2021/01/18 07:07:36;;;;;;;13.00;6.83;;;2.10;99.90;;;;;;5036524;28;20412;-74
2021/01/18 07:10:08;;;;;;;11.83;6.33;;;2.10;99.90;;;;;;5037977;28;20478;-73
2021/01/18 07:12:34;;;;;;;13.03;7.30;;;2.10;99.90;;;;;;5030971;28;20428;-75
2021/01/18 07:15:10;;;;;;;15.57;7.60;;;2.10;99.90;;;;;;5019985;28;20816;-73
2021/01/18 07:17:55;;;;;;;12.87;7.33;;;2.10;99.90;;;;;;5023298;28;20526;-73
2021/01/18 07:20:23;;;;;;;20.40;8.60;;;2.10;99.90;;;;;;5031788;28;20426;-74
2021/01/18 07:23:07;;;;;;;15.80;6.80;;;2.20;99.90;;;;;;5029856;28;20526;-74
2021/01/18 07:25:57;;;;;;;23.17;8.83;;;2.30;99.90;;;;;;5029539;28;20432;-74
2021/01/18 07:28:24;;;;;;;19.57;7.90;;;2.30;99.90;;;;;;5030240;28;20511;-74
2021/01/18 07:30:54;;;;;;;19.33;7.10;;;2.30;99.90;;;;;;5029131;28;20875;-74
2021/01/18 07:33:20;;;;;;;17.83;7.90;;;2.30;99.90;;;;;;5027119;28;20510;-74
2021/01/18 07:35:47;;;;;;;19.70;7.57;;;2.40;99.90;;;;;;5029016;28;20449;-74
2021/01/18 07:38:22;;;;;;;17.43;7.67;;;2.40;99.90;;;;;;5035128;28;20615;-74
2021/01/18 07:41:06;;;;;;;20.67;9.03;;;2.40;99.90;;;;;;5024507;28;20897;-74
2021/01/18 07:43:37;;;;;;;18.80;8.97;;;2.30;99.90;;;;;;5027886;28;20458;-73
2021/01/18 07:46:21;;;;;;;27.77;10.93;;;2.40;99.90;;;;;;5026840;28;20435;-75
2021/01/18 07:48:47;;;;;;;25.70;10.40;;;2.30;99.90;;;;;;5024581;28;20986;-73
2021/01/18 07:51:22;;;;;;;34.03;10.57;;;2.30;99.90;;;;;;5026744;28;20471;-74
2021/01/18 07:53:48;;;;;;;25.30;9.10;;;2.30;99.90;;;;;;5014876;28;20214;-74
2021/01/18 07:56:31;;;;;;;27.20;10.40;;;2.30;99.90;;;;;;5021956;28;20809;-75
2021/01/18 07:58:58;;;;;;;33.90;12.20;;;2.40;99.90;;;;;;5025788;28;20420;-74
2021/01/18 08:01:31;;;;;;;37.03;12.40;;;2.30;99.90;;;;;;5023299;28;20425;-74
2021/01/18 08:04:20;;;;;;;46.90;13.40;;;2.40;99.90;;;;;;5027845;28;20901;-74
2021/01/18 08:07:04;;;;;;;35.80;12.87;;;2.40;99.90;;;;;;5023178;28;20440;-74
2021/01/18 08:09:31;;;;;;;33.33;13.37;;;2.50;99.90;;;;;;5025500;28;20434;-74
2021/01/18 08:12:28;;;;;;;32.63;12.97;;;2.40;99.90;;;;;;5036968;28;20479;-74
2021/01/18 08:14:55;;;;;;;42.53;13.43;;;2.50;99.90;;;;;;5032995;28;20440;-74
2021/01/18 08:17:21;;;;;;;32.80;12.87;;;2.50;99.90;;;;;;5024771;28;20425;-74
2021/01/18 08:20:06;;;;;;;29.90;12.30;;;2.50;99.90;;;;;;5024053;28;21996;-74
2021/01/18 08:22:32;;;;;;;35.60;13.30;;;2.50;99.90;;;;;;5028718;28;20185;-75
2021/01/18 08:24:58;;;;;;;33.60;12.50;;;2.50;99.90;;;;;;5034106;28;20421;-75
2021/01/18 08:27:41;;;;;;;33.17;12.53;;;2.50;99.90;;;;;;5033483;28;20252;-75
2021/01/18 08:30:21;;;;;;;39.43;14.43;;;2.60;99.90;;;;;;5012711;28;20435;-75
2021/01/18 08:32:57;;;;;;;35.67;13.50;;;2.60;99.90;;;;;;5024490;28;20794;-74
2021/01/18 08:35:28;;;;;;;40.23;13.37;;;2.60;99.90;;;;;;5028155;28;20521;-74
2021/01/18 08:38:06;;;;;;;46.23;13.63;;;2.60;99.90;;;;;;5027349;28;20788;-74
2021/01/18 08:40:44;;;;;;;33.17;11.30;;;2.60;99.90;;;;;;5023291;28;20420;-73
2021/01/18 08:43:10;;;;;;;32.53;11.33;;;2.70;99.90;;;;;;5025776;28;21022;-74
2021/01/18 08:45:37;;;;;;;39.23;13.07;;;2.60;99.90;;;;;;5028775;28;20937;-74
2021/01/18 08:48:06;;;;;;;41.80;11.23;;;2.80;99.90;;;;;;5028721;28;20431;-74
2021/01/18 08:50:37;;;;;;;34.50;11.43;;;2.70;99.90;;;;;;5027163;28;20422;-74
2021/01/18 08:53:23;;;;;;;33.33;10.43;;;2.70;99.90;;;;;;5030400;28;20427;-74
2021/01/18 08:55:52;;;;;;;31.43;10.67;;;2.70;99.90;;;;;;5029394;28;20778;-74
2021/01/18 08:58:41;;;;;;;28.07;9.87;;;2.70;99.90;;;;;;5026786;28;20467;-73
2021/01/18 09:01:21;;;;;;;28.80;9.40;;;2.80;99.90;;;;;;5026524;28;20424;-74
2021/01/18 09:04:01;;;;;;;27.83;10.17;;;2.80;99.90;;;;;;5028015;28;20420;-74
2021/01/18 09:06:28;;;;;;;34.07;10.53;;;2.90;99.90;;;;;;5030795;28;20428;-75
2021/01/18 09:09:02;;;;;;;29.97;10.40;;;2.90;99.90;;;;;;5023000;28;20429;-74
2021/01/18 09:11:29;;;;;;;29.93;12.17;;;2.90;99.90;;;;;;5027898;28;20421;-74
2021/01/18 09:13:55;;;;;;;28.57;10.73;;;2.80;99.90;;;;;;5025959;28;20442;-73
2021/01/18 09:16:20;;;;;;;27.93;9.27;;;2.80;99.90;;;;;;5029819;28;20532;-74
2021/01/18 09:18:46;;;;;;;27.90;11.03;;;2.90;99.90;;;;;;5033673;28;20203;-74
2021/01/18 09:21:16;;;;;;;22.47;8.57;;;2.90;99.90;;;;;;5026880;28;20470;-74
2021/01/18 09:23:42;;;;;;;35.10;11.73;;;3.00;99.90;;;;;;5033480;28;20747;-73
2021/01/18 09:26:12;;;;;;;25.90;9.93;;;3.00;99.90;;;;;;5031157;28;20441;-73
2021/01/18 09:28:59;;;;;;;28.07;10.03;;;3.00;99.90;;;;;;5026016;28;20433;-74
2021/01/18 09:31:25;;;;;;;30.50;10.07;;;3.00;99.90;;;;;;5031128;28;20429;-73
2021/01/18 09:33:52;;;;;;;25.73;10.47;;;3.00;99.90;;;;;;5024937;28;20463;-74
2021/01/18 09:36:22;;;;;;;27.17;10.50;;;3.00;99.90;;;;;;5031134;28;20460;-73
2021/01/18 09:38:50;;;;;;;20.50;9.77;;;3.00;99.90;;;;;;5026787;28;20918;-73
2021/01/18 09:41:17;;;;;;;30.20;9.97;;;3.00;99.90;;;;;;5025157;28;20421;-73
2021/01/18 09:43:44;;;;;;;29.30;10.70;;;3.10;99.90;;;;;;5024509;28;20753;-72
2021/01/18 09:46:11;;;;;;;32.23;10.90;;;3.10;99.90;;;;;;5024060;28;20445;-73
2021/01/18 09:48:37;;;;;;;30.93;11.77;;;3.10;99.90;;;;;;5027215;28;20438;-73
2021/01/18 09:51:05;;;;;;;30.93;9.90;;;3.20;99.90;;;;;;5024730;28;20434;-72
2021/01/18 09:53:32;;;;;;;16.63;8.73;;;3.20;99.90;;;;;;5023417;28;20429;-72
2021/01/18 09:56:12;;;;;;;20.03;9.10;;;3.20;99.90;;;;;;5023704;28;20458;-72
2021/01/18 09:58:51;;;;;;;20.83;9.23;;;3.20;99.90;;;;;;5022715;28;20428;-72
2021/01/18 10:01:19;;;;;;;27.83;10.30;;;3.20;99.90;;;;;;5023224;28;20424;-72
2021/01/18 10:03:59;;;;;;;22.20;9.67;;;3.20;99.90;;;;;;5023536;28;20462;-72
2021/01/18 10:06:27;;;;;;;32.60;9.23;;;3.10;99.90;;;;;;5022765;28;20426;-73
2021/01/18 10:09:01;;;;;;;28.13;9.40;;;3.20;99.90;;;;;;5026197;28;20440;-73
2021/01/18 10:11:43;;;;;;;15.03;8.27;;;3.20;99.90;;;;;;5027197;28;20433;-73
2021/01/18 10:14:23;;;;;;;16.50;8.80;;;3.20;99.90;;;;;;5025978;28;20910;-73
2021/01/18 10:17:04;;;;;;;18.60;9.20;;;3.20;99.90;;;;;;5021511;28;20461;-73
2021/01/18 10:19:35;;;;;;;15.07;7.07;;;3.30;99.90;;;;;;5024661;28;20762;-73
2021/01/18 10:22:03;;;;;;;12.83;7.93;;;3.40;99.90;;;;;;5024930;28;20890;-73
2021/01/18 10:24:30;;;;;;;18.23;8.47;;;3.30;99.90;;;;;;5024134;28;20439;-73
2021/01/18 10:27:03;;;;;;;11.60;7.03;;;3.40;99.90;;;;;;5023358;28;20912;-73
2021/01/18 10:29:29;;;;;;;11.40;7.77;;;3.30;99.90;;;;;;5022950;28;20501;-73
2021/01/18 10:31:55;;;;;;;12.47;7.80;;;3.40;99.90;;;;;;5022953;28;20578;-73
2021/01/18 10:34:21;;;;;;;17.27;9.87;;;3.40;99.90;;;;;;5023156;28;20841;-73
2021/01/18 10:36:48;;;;;;;17.80;7.83;;;3.50;99.90;;;;;;5029251;28;20460;-73
2021/01/18 10:39:34;;;;;;;16.50;8.50;;;3.40;99.90;;;;;;5026594;28;20177;-73
2021/01/18 10:42:09;;;;;;;16.23;9.27;;;3.40;99.90;;;;;;5030377;28;20516;-74
2021/01/18 10:44:39;;;;;;;13.43;8.67;;;3.40;99.90;;;;;;5033822;28;20508;-77
2021/01/18 10:47:05;;;;;;;14.70;9.07;;;3.50;99.90;;;;;;5029060;28;20425;-73
2021/01/18 10:49:32;;;;;;;18.30;8.03;;;3.50;99.90;;;;;;5027275;28;20431;-75
2021/01/18 10:52:05;;;;;;;18.93;8.57;;;3.50;99.90;;;;;;5030253;28;20453;-73
2021/01/18 10:54:32;;;;;;;19.67;10.57;;;3.60;99.90;;;;;;5019393;28;20912;-74
2021/01/18 10:56:58;;;;;;;16.07;8.50;;;3.60;99.90;;;;;;5021422;28;20525;-75
2021/01/18 10:59:25;;;;;;;19.30;10.43;;;3.60;99.90;;;;;;5032944;28;20514;-74
2021/01/18 11:02:07;;;;;;;22.73;10.33;;;3.60;99.90;;;;;;5027471;28;20823;-75
2021/01/18 11:04:35;;;;;;;18.20;9.77;;;3.60;99.90;;;;;;5031373;28;20486;-79
2021/01/18 11:07:08;;;;;;;26.10;10.03;;;3.60;99.90;;;;;;5022263;28;20416;-75
2021/01/18 11:09:34;;;;;;;18.87;10.63;;;3.70;99.90;;;;;;5017329;28;20427;-75
2021/01/18 11:12:03;;;;;;;18.20;11.00;;;3.70;99.90;;;;;;5024454;28;20426;-75
2021/01/18 11:14:30;;;;;;;18.80;9.37;;;3.70;99.90;;;;;;5020025;28;20180;-75
2021/01/18 11:17:01;;;;;;;24.90;9.97;;;3.70;99.90;;;;;;5022673;28;20541;-76
2021/01/18 11:19:27;;;;;;;26.57;12.20;;;3.70;99.90;;;;;;5025589;28;20521;-76
2021/01/18 11:21:52;;;;;;;23.90;10.70;;;3.80;99.90;;;;;;5021104;28;21060;-75
2021/01/18 11:24:18;;;;;;;25.20;12.07;;;3.90;99.90;;;;;;5026377;28;20188;-75
2021/01/18 11:26:48;;;;;;;20.00;11.20;;;3.90;99.90;;;;;;5024647;28;20423;-75
2021/01/18 11:29:14;;;;;;;20.00;10.30;;;3.90;99.90;;;;;;5030535;28;20215;-75
2021/01/18 11:31:39;;;;;;;18.00;9.90;;;4.00;99.90;;;;;;5006652;28;20471;-75
2021/01/18 11:34:05;;;;;;;21.50;11.83;;;3.90;99.90;;;;;;5025619;28;20192;-75
2021/01/18 11:36:31;;;;;;;24.07;13.00;;;3.80;99.90;;;;;;5040358;28;20204;-73
2021/01/18 11:38:57;;;;;;;32.53;12.70;;;3.80;99.90;;;;;;5044111;28;20196;-74
2021/01/18 11:41:22;;;;;;;25.80;11.63;;;3.80;99.90;;;;;;5040208;28;20230;-73
2021/01/18 11:43:48;;;;;;;38.93;13.57;;;3.80;99.90;;;;;;5047200;28;20170;-73
2021/01/18 11:46:18;;;;;;;21.93;12.00;;;3.80;99.90;;;;;;5035432;28;20180;-75
2021/01/18 11:48:45;;;;;;;26.17;12.80;;;3.90;99.90;;;;;;5039950;28;20487;-73
2021/01/18 11:51:11;;;;;;;30.93;13.03;;;3.90;99.90;;;;;;5041099;28;20466;-74
2021/01/18 11:53:37;;;;;;;26.73;12.90;;;3.90;99.90;;;;;;5031288;28;20443;-74
2021/01/18 11:56:03;;;;;;;31.23;14.43;;;3.90;99.90;;;;;;5041811;28;20466;-74
2021/01/18 11:58:28;;;;;;;26.67;13.90;;;3.90;99.90;;;;;;5041073;28;20435;-74
2021/01/18 12:00:54;;;;;;;28.80;14.50;;;3.90;99.90;;;;;;5038045;28;20431;-74
2021/01/18 12:03:20;;;;;;;25.50;12.83;;;3.80;99.90;;;;;;5041871;28;20347;-75
2021/01/18 12:05:45;;;;;;;27.50;13.17;;;3.90;99.90;;;;;;5044629;28;20186;-75
2021/01/18 12:08:11;;;;;;;34.20;13.70;;;3.90;99.90;;;;;;5038193;28;20179;-75
2021/01/18 12:10:39;;;;;;;30.10;14.47;;;3.90;99.90;;;;;;5030052;28;20198;-75
2021/01/18 12:13:08;;;;;;;29.63;13.80;;;4.00;99.90;;;;;;5034358;28;20430;-76
2021/01/18 12:15:35;;;;;;;24.63;13.53;;;3.90;99.90;;;;;;5034248;28;20933;-74
2021/01/18 12:18:01;;;;;;;35.90;16.73;;;4.00;99.90;;;;;;5031792;28;20419;-74
2021/01/18 12:20:27;;;;;;;25.80;13.63;;;3.90;99.90;;;;;;5034995;28;20419;-74
2021/01/18 12:22:55;;;;;;;31.13;13.60;;;4.00;99.90;;;;;;5037897;28;20180;-75
2021/01/18 12:25:22;;;;;;;34.03;14.60;;;4.00;99.90;;;;;;5030929;28;20787;-75
2021/01/18 12:27:54;;;;;;;27.53;12.13;;;4.10;99.90;;;;;;5031284;28;20419;-74
2021/01/18 12:30:23;;;;;;;30.27;14.50;;;4.10;99.90;;;;;;5030345;28;20474;-75
2021/01/18 12:32:50;;;;;;;27.23;14.00;;;4.00;99.90;;;;;;5022436;28;20762;-75
2021/01/18 12:35:17;;;;;;;29.43;14.37;;;4.00;99.90;;;;;;5011124;28;20891;-74
2021/01/18 12:37:42;;;;;;;31.10;14.50;;;4.10;99.90;;;;;;5034050;28;20570;-74
2021/01/18 12:40:11;;;;;;;38.53;14.63;;;4.20;99.90;;;;;;5031538;28;21086;-74
2021/01/18 12:42:46;;;;;;;28.47;14.90;;;4.10;99.90;;;;;;5023246;28;20457;-73
2021/01/18 12:45:14;;;;;;;31.37;13.80;;;4.10;99.90;;;;;;5028889;28;20426;-74
2021/01/18 12:47:40;;;;;;;31.27;15.40;;;4.20;99.90;;;;;;5024732;28;20450;-74
2021/01/18 12:50:08;;;;;;;29.20;15.00;;;4.10;99.90;;;;;;5021638;28;20920;-74
2021/01/18 12:52:35;;;;;;;33.43;15.00;;;4.10;99.90;;;;;;5028566;28;20750;-74
2021/01/18 12:55:00;;;;;;;27.70;14.43;;;4.20;99.90;;;;;;5040223;28;20432;-75
2021/01/18 12:57:26;;;;;;;40.33;15.53;;;4.10;99.90;;;;;;5038110;28;20455;-76
2021/01/18 12:59:52;;;;;;;34.07;15.00;;;4.20;99.90;;;;;;5035691;28;20367;-75